Time;durP1;ratioP1;P1;durP2;ratioP2;P2;SDS_P1;SDS_P2;PMS_P1;PMS_P2;Temp;Humidity;BMP_temperature;BMP_pressure;BME280_temperature;BME280_humidity;BME280_pressure;Samples;Min_cycle;Max_cycle;Signal;HPM_P1;HPM_P2
2023/03/30 00:01:19;;;;;;;9.27;4.20;;;;;;;;;;4941444;29;20043;-72
2023/03/30 00:03:45;;;;;;;11.32;4.18;;;;;;;;;;4924842;28;20070;-68
2023/03/30 00:06:13;;;;;;;9.05;4.53;;;;;;;;;;4941713;29;20103;-69
2023/03/30 00:08:39;;;;;;;10.38;4.40;;;;;;;;;;4941375;28;20039;-69
2023/03/30 00:11:14;;;;;;;9.70;4.45;;;;;;;;;;4941863;29;20411;-70
2023/03/30 00:13:41;;;;;;;10.73;4.63;;;;;;;;;;4941271;29;20086;-70
2023/03/30 00:16:10;;;;;;;7.95;3.80;;;;;;;;;;4941495;28;20047;-69
2023/03/30 00:18:36;;;;;;;11.55;4.30;;;;;;;;;;4940211;28;20051;-70
2023/03/30 00:21:02;;;;;;;11.18;4.20;;;;;;;;;;4941757;28;20062;-70
2023/03/30 00:23:28;;;;;;;9.98;3.85;;;;;;;;;;4940519;29;20110;-69
2023/03/30 00:25:54;;;;;;;10.15;4.38;;;;;;;;;;4941673;29;20121;-69
2023/03/30 00:28:21;;;;;;;10.23;4.15;;;;;;;;;;4941383;28;20387;-70
2023/03/30 00:30:47;;;;;;;8.73;4.47;;;;;;;;;;4941686;29;20081;-70
2023/03/30 00:33:13;;;;;;;5.28;4.20;;;;;;;;;;4940018;28;20986;-67
2023/03/30 00:35:38;;;;;;;10.85;4.53;;;;;;;;;;4940459;28;20053;-71
2023/03/30 00:38:04;;;;;;;8.73;4.40;;;;;;;;;;4941304;29;20062;-67
2023/03/30 00:40:31;;;;;;;8.98;4.03;;;;;;;;;;4940976;28;20057;-69
2023/03/30 00:43:02;;;;;;;13.93;4.80;;;;;;;;;;4923971;29;20054;-70
2023/03/30 00:45:30;;;;;;;8.13;4.30;;;;;;;;;;4940464;28;21083;-69
2023/03/30 00:48:14;;;;;;;8.85;4.63;;;;;;;;;;4941288;29;20122;-67
2023/03/30 00:50:50;;;;;;;10.00;5.15;;;;;;;;;;4923730;28;20745;-69
2023/03/30 00:53:21;;;;;;;6.97;4.22;;;;;;;;;;4924351;29;20039;-69
2023/03/30 00:55:49;;;;;;;8.07;4.72;;;;;;;;;;4941294;29;20051;-70
2023/03/30 00:58:16;;;;;;;9.95;4.22;;;;;;;;;;4940312;28;20051;-67
2023/03/30 01:00:45;;;;;;;9.70;4.22;;;;;;;;;;4924227;29;20047;-69
2023/03/30 01:03:29;;;;;;;8.43;3.75;;;;;;;;;;4939941;28;20058;-70
2023/03/30 01:05:57;;;;;;;5.65;4.00;;;;;;;;;;4938035;29;20043;-70
2023/03/30 01:08:26;;;;;;;10.00;4.30;;;;;;;;;;4921573;28;20062;-70
2023/03/30 01:10:52;;;;;;;9.55;4.68;;;;;;;;;;4939405;29;20109;-67
2023/03/30 01:13:19;;;;;;;9.23;3.95;;;;;;;;;;4921865;29;20127;-69
2023/03/30 01:16:19;;;;;;;6.03;3.83;;;;;;;;;;4940212;28;20533;-69
2023/03/30 01:19:04;;;;;;;7.50;4.20;;;;;;;;;;4939627;29;20075;-69
2023/03/30 01:21:32;;;;;;;8.43;4.10;;;;;;;;;;4937585;28;20055;-70
2023/03/30 01:24:19;;;;;;;8.32;4.05;;;;;;;;;;4941021;29;20047;-68
2023/03/30 01:26:55;;;;;;;7.72;4.53;;;;;;;;;;4939812;28;20054;-70
2023/03/30 01:29:54;;;;;;;8.13;4.32;;;;;;;;;;4943331;28;20048;-71
2023/03/30 01:32:40;;;;;;;7.05;4.38;;;;;;;;;;4942544;28;20558;-68
2023/03/30 01:35:35;;;;;;;13.52;4.18;;;;;;;;;;4944194;29;20094;-68
2023/03/30 01:38:19;;;;;;;8.52;4.40;;;;;;;;;;4926598;29;20133;-71
2023/03/30 01:40:53;;;;;;;7.25;4.22;;;;;;;;;;4944317;29;20481;-70
2023/03/30 01:43:44;;;;;;;6.88;4.32;;;;;;;;;;4943876;29;20129;-71
2023/03/30 01:46:24;;;;;;;15.68;4.50;;;;;;;;;;4927313;28;20063;-70
2023/03/30 01:49:11;;;;;;;6.15;4.55;;;;;;;;;;4900455;29;20051;-71
2023/03/30 01:51:48;;;;;;;5.88;3.90;;;;;;;;;;4944100;28;20044;-71
2023/03/30 01:54:24;;;;;;;10.88;4.35;;;;;;;;;;4943739;29;20040;-71
2023/03/30 01:57:03;;;;;;;5.10;3.90;;;;;;;;;;4919033;29;20074;-70
2023/03/30 01:59:35;;;;;;;5.45;3.80;;;;;;;;;;4925868;29;20505;-70
2023/03/30 02:02:03;;;;;;;;;;;;;;;;;;4927072;28;20066;-67
2023/03/30 02:04:37;;;;;;;9.13;4.13;;;;;;;;;;4926120;29;20349;-68
2023/03/30 02:07:15;;;;;;;9.30;4.10;;;;;;;;;;4926716;28;20070;-68
2023/03/30 02:09:42;;;;;;;7.45;4.40;;;;;;;;;;4942694;29;20506;-69
2023/03/30 02:12:09;;;;;;;7.82;4.20;;;;;;;;;;4926776;29;20047;-70
2023/03/30 02:14:37;;;;;;;11.63;4.43;;;;;;;;;;4942768;28;20087;-69
2023/03/30 02:17:10;;;;;;;8.07;4.45;;;;;;;;;;4926389;29;20051;-68
2023/03/30 02:19:36;;;;;;;8.50;4.15;;;;;;;;;;4927025;28;20055;-70
2023/03/30 02:22:03;;;;;;;7.82;3.80;;;;;;;;;;4942704;29;20047;-70
2023/03/30 02:24:31;;;;;;;11.68;3.70;;;;;;;;;;4942590;28;20047;-67
2023/03/30 02:26:58;;;;;;;10.73;4.25;;;;;;;;;;4943625;29;20566;-69
2023/03/30 02:29:24;;;;;;;13.10;4.07;;;;;;;;;;4926494;29;20114;-70
2023/03/30 02:31:53;;;;;;;7.32;3.40;;;;;;;;;;4943212;28;20525;-72
2023/03/30 02:35:07;;;;;;;12.80;4.30;;;;;;;;;;4941135;29;20031;-72
2023/03/30 02:37:54;;;;;;;4.80;3.55;;;;;;;;;;4941550;28;20077;-71
2023/03/30 02:40:28;;;;;;;7.75;3.83;;;;;;;;;;4941758;28;20039;-71
2023/03/30 02:43:25;;;;;;;9.27;3.80;;;;;;;;;;4925542;28;20589;-71
2023/03/30 02:46:04;;;;;;;5.03;3.20;;;;;;;;;;4926065;29;20047;-68
2023/03/30 02:48:58;;;;;;;10.93;4.68;;;;;;;;;;4941265;28;20078;-72
2023/03/30 02:51:32;;;;;;;10.82;4.63;;;;;;;;;;4941555;29;20049;-73
2023/03/30 02:54:23;;;;;;;6.57;3.92;;;;;;;;;;4924519;28;20055;-72
2023/03/30 02:57:28;;;;;;;9.60;4.45;;;;;;;;;;4943335;29;20097;-71
2023/03/30 03:00:13;;;;;;;7.68;3.78;;;;;;;;;;4926033;29;20130;-71
2023/03/30 03:02:42;;;;;;;6.85;3.63;;;;;;;;;;4925166;28;20059;-70
2023/03/30 03:05:20;;;;;;;9.70;4.00;;;;;;;;;;4924318;29;20043;-68
2023/03/30 03:07:56;;;;;;;8.23;3.78;;;;;;;;;;4925622;28;20138;-70
2023/03/30 03:10:22;;;;;;;7.20;4.00;;;;;;;;;;4925040;29;20055;-71
2023/03/30 03:12:47;;;;;;;5.22;3.38;;;;;;;;;;4925732;28;20106;-71
2023/03/30 03:15:13;;;;;;;7.35;4.28;;;;;;;;;;4924546;29;20051;-72
2023/03/30 03:17:50;;;;;;;5.10;2.97;;;;;;;;;;4925377;29;20051;-71
2023/03/30 03:20:16;;;;;;;6.05;2.40;;;;;;;;;;4924860;29;20043;-71
2023/03/30 03:22:42;;;;;;;9.88;2.40;;;;;;;;;;4924410;28;20047;-72
2023/03/30 03:25:07;;;;;;;12.52;2.00;;;;;;;;;;4925268;29;20537;-69
2023/03/30 03:27:46;;;;;;;4.72;1.48;;;;;;;;;;4924703;29;20151;-71
2023/03/30 03:30:17;;;;;;;6.47;1.40;;;;;;;;;;4924470;28;20391;-75
2023/03/30 03:32:50;;;;;;;9.45;2.10;;;;;;;;;;4924084;29;20047;-70
2023/03/30 03:35:16;;;;;;;13.60;1.75;;;;;;;;;;4941676;28;20078;-71
2023/03/30 03:37:42;;;;;;;13.63;2.13;;;;;;;;;;4923918;29;20081;-71
2023/03/30 03:40:10;;;;;;;8.18;2.13;;;;;;;;;;4924567;29;20477;-72
2023/03/30 03:42:37;;;;;;;8.23;2.45;;;;;;;;;;4924455;28;20078;-71
2023/03/30 03:45:09;;;;;;;6.18;1.80;;;;;;;;;;4923946;29;20047;-70
2023/03/30 03:47:40;;;;;;;10.95;2.05;;;;;;;;;;4924576;29;20511;-70
2023/03/30 03:50:08;;;;;;;13.52;2.83;;;;;;;;;;4907579;29;20058;-69
2023/03/30 03:52:35;;;;;;;20.88;1.95;;;;;;;;;;4940273;28;20047;-72
2023/03/30 03:55:02;;;;;;;12.80;2.40;;;;;;;;;;4941189;29;20049;-72
2023/03/30 03:57:27;;;;;;;11.63;1.92;;;;;;;;;;4925583;29;20043;-69
2023/03/30 03:59:55;;;;;;;6.10;1.75;;;;;;;;;;4924874;28;20628;-68
2023/03/30 04:02:21;;;;;;;8.80;2.22;;;;;;;;;;4924321;29;20043;-72
2023/03/30 04:04:46;;;;;;;10.75;2.20;;;;;;;;;;4942782;28;20057;-71
2023/03/30 04:07:12;;;;;;;7.50;2.00;;;;;;;;;;4924487;29;20067;-72
2023/03/30 04:09:38;;;;;;;21.15;2.38;;;;;;;;;;4924706;29;20530;-72
2023/03/30 04:12:37;;;;;;;9.75;2.35;;;;;;;;;;4923842;28;20133;-72
2023/03/30 04:15:17;;;;;;;9.25;2.47;;;;;;;;;;4923947;29;20073;-69
2023/03/30 04:18:00;;;;;;;12.52;3.17;;;;;;;;;;4924612;28;20055;-70
2023/03/30 04:20:47;;;;;;;14.00;2.88;;;;;;;;;;4939621;28;20401;-71
2023/03/30 04:23:32;;;;;;;14.13;2.45;;;;;;;;;;4940701;28;20101;-73
2023/03/30 04:26:18;;;;;;;5.90;1.95;;;;;;;;;;4900191;29;20450;-70
2023/03/30 04:28:55;;;;;;;11.10;2.70;;;;;;;;;;4924135;29;20089;-72
2023/03/30 04:31:50;;;;;;;18.50;2.35;;;;;;;;;;4923151;28;21014;-72
2023/03/30 04:34:34;;;;;;;11.95;3.05;;;;;;;;;;4923090;29;20514;-72
2023/03/30 04:37:29;;;;;;;15.93;2.35;;;;;;;;;;4910070;29;20082;-69
2023/03/30 04:40:11;;;;;;;10.80;2.58;;;;;;;;;;4924641;29;20047;-71
2023/03/30 04:43:01;;;;;;;8.80;2.38;;;;;;;;;;4892263;29;20043;-72
2023/03/30 04:45:58;;;;;;;13.93;3.50;;;;;;;;;;4889144;29;20055;-71
2023/03/30 04:48:44;;;;;;;9.13;2.80;;;;;;;;;;4922072;28;20050;-73
2023/03/30 04:51:23;;;;;;;8.63;2.80;;;;;;;;;;4922212;29;20051;-74
2023/03/30 04:53:51;;;;;;;15.90;3.03;;;;;;;;;;4938639;29;20050;-71
2023/03/30 04:56:35;;;;;;;14.38;3.90;;;;;;;;;;4938734;28;20496;-70
2023/03/30 04:59:09;;;;;;;14.15;3.55;;;;;;;;;;4939370;29;20059;-71
2023/03/30 05:01:51;;;;;;;14.10;3.50;;;;;;;;;;4910456;29;20055;-69
2023/03/30 05:04:38;;;;;;;10.82;3.40;;;;;;;;;;4941973;28;20077;-71
2023/03/30 05:07:22;;;;;;;9.70;3.08;;;;;;;;;;4944688;29;20063;-72
2023/03/30 05:10:07;;;;;;;8.52;3.75;;;;;;;;;;4928148;29;20039;-70
2023/03/30 05:12:55;;;;;;;9.25;3.17;;;;;;;;;;4927649;29;20133;-71
2023/03/30 05:15:38;;;;;;;17.48;3.60;;;;;;;;;;4944023;29;20565;-69
2023/03/30 05:18:15;;;;;;;14.05;3.15;;;;;;;;;;4928766;29;20043;-72
2023/03/30 05:20:59;;;;;;;13.82;2.83;;;;;;;;;;4928483;29;20078;-72
2023/03/30 05:23:44;;;;;;;13.00;3.08;;;;;;;;;;4946915;29;20074;-71
2023/03/30 05:26:45;;;;;;;6.80;1.63;;;;;;;;;;4852918;29;20053;-73
2023/03/30 05:29:36;;;;;;;7.97;2.80;;;;;;;;;;4921101;29;20055;-71
2023/03/30 05:32:34;;;;;;;13.75;3.10;;;;;;;;;;4919393;29;20050;-71
2023/03/30 05:35:18;;;;;;;16.33;3.22;;;;;;;;;;4946117;29;20191;-70
2023/03/30 05:38:06;;;;;;;16.13;3.67;;;;;;;;;;4906192;29;20051;-72
2023/03/30 05:40:45;;;;;;;16.50;3.25;;;;;;;;;;4928626;29;20110;-71
2023/03/30 05:43:33;;;;;;;12.85;2.85;;;;;;;;;;4929702;28;20050;-72
2023/03/30 05:46:15;;;;;;;14.95;3.83;;;;;;;;;;4928653;29;20044;-72
2023/03/30 05:49:16;;;;;;;10.45;3.55;;;;;;;;;;4920101;29;20757;-72
2023/03/30 05:51:50;;;;;;;14.55;4.38;;;;;;;;;;4928517;29;20051;-72
2023/03/30 05:54:35;;;;;;;14.68;4.00;;;;;;;;;;4944721;28;20058;-70
2023/03/30 05:57:26;;;;;;;21.38;4.47;;;;;;;;;;4928486;29;20182;-69
2023/03/30 06:00:09;;;;;;;20.73;4.13;;;;;;;;;;4928007;28;20965;-71
2023/03/30 06:02:37;;;;;;;11.18;3.72;;;;;;;;;;4944509;29;20058;-70
2023/03/30 06:05:08;;;;;;;12.15;4.53;;;;;;;;;;4927412;28;20537;-71
2023/03/30 06:07:33;;;;;;;11.25;4.05;;;;;;;;;;4933276;29;20055;-71
2023/03/30 06:10:00;;;;;;;22.13;5.13;;;;;;;;;;4926628;29;20051;-70
2023/03/30 06:12:27;;;;;;;12.30;4.65;;;;;;;;;;4926013;28;20047;-72
2023/03/30 06:14:53;;;;;;;17.60;4.05;;;;;;;;;;4926103;29;20043;-71
2023/03/30 06:17:36;;;;;;;16.45;4.07;;;;;;;;;;4927286;28;20069;-74
2023/03/30 06:20:09;;;;;;;17.02;4.97;;;;;;;;;;4943290;29;20422;-73
2023/03/30 06:22:36;;;;;;;17.05;4.13;;;;;;;;;;4925816;28;20462;-75
2023/03/30 06:25:07;;;;;;;10.10;3.42;;;;;;;;;;4926732;29;20070;-74
2023/03/30 06:27:34;;;;;;;11.70;4.15;;;;;;;;;;4925560;29;20043;-74
2023/03/30 06:30:00;;;;;;;12.68;4.93;;;;;;;;;;4926870;28;20082;-72
2023/03/30 06:32:26;;;;;;;13.60;3.55;;;;;;;;;;4926129;29;20039;-73
2023/03/30 06:35:17;;;;;;;12.82;3.38;;;;;;;;;;4925397;28;20967;-73
2023/03/30 06:37:43;;;;;;;14.23;3.10;;;;;;;;;;4943689;29;20058;-73
2023/03/30 06:40:12;;;;;;;7.85;3.10;;;;;;;;;;4926908;29;20047;-74
2023/03/30 06:42:40;;;;;;;14.30;3.85;;;;;;;;;;4925768;28;20058;-72
2023/03/30 06:45:31;;;;;;;13.93;3.47;;;;;;;;;;4939731;29;20133;-74
2023/03/30 06:47:57;;;;;;;8.68;2.95;;;;;;;;;;4926532;29;20427;-72
2023/03/30 06:50:22;;;;;;;10.45;2.67;;;;;;;;;;4925925;29;20051;-73
2023/03/30 06:52:51;;;;;;;10.90;2.97;;;;;;;;;;4943786;28;20096;-72
2023/03/30 06:55:20;;;;;;;12.75;2.10;;;;;;;;;;4925030;28;20788;-73
2023/03/30 06:57:46;;;;;;;7.07;2.42;;;;;;;;;;4942381;29;20043;-73
2023/03/30 07:00:12;;;;;;;6.45;2.55;;;;;;;;;;4925920;28;20114;-73
2023/03/30 07:02:42;;;;;;;8.35;2.38;;;;;;;;;;4942691;29;20616;-74
2023/03/30 07:05:14;;;;;;;9.05;3.33;;;;;;;;;;4926043;28;20086;-73
2023/03/30 07:07:58;;;;;;;6.93;3.08;;;;;;;;;;4925095;29;20068;-72
2023/03/30 07:10:24;;;;;;;11.40;2.95;;;;;;;;;;4925032;28;20047;-73
2023/03/30 07:12:50;;;;;;;14.27;3.00;;;;;;;;;;4926143;29;20063;-73
2023/03/30 07:15:16;;;;;;;15.43;2.70;;;;;;;;;;4925689;29;20058;-73
2023/03/30 07:17:42;;;;;;;6.88;2.80;;;;;;;;;;4933083;28;20059;-72
2023/03/30 07:20:09;;;;;;;10.60;2.83;;;;;;;;;;4925708;29;20050;-73
2023/03/30 07:22:48;;;;;;;7.47;2.20;;;;;;;;;;4925646;28;20097;-73
2023/03/30 07:25:14;;;;;;;9.45;2.47;;;;;;;;;;4925370;29;20042;-73
2023/03/30 07:27:40;;;;;;;10.93;2.83;;;;;;;;;;4924757;29;20128;-72
2023/03/30 07:30:07;;;;;;;5.03;2.40;;;;;;;;;;4937883;28;20150;-71
2023/03/30 07:32:33;;;;;;;6.22;2.55;;;;;;;;;;4923985;29;20045;-71
2023/03/30 07:34:58;;;;;;;6.38;2.25;;;;;;;;;;4916890;29;20047;-72
2023/03/30 07:37:25;;;;;;;9.77;2.50;;;;;;;;;;4928439;29;20130;-72
2023/03/30 07:39:51;;;;;;;4.82;2.10;;;;;;;;;;4922480;28;20050;-72
2023/03/30 07:42:16;;;;;;;5.35;2.47;;;;;;;;;;4922773;29;20147;-72
2023/03/30 07:44:42;;;;;;;6.25;2.65;;;;;;;;;;4921638;28;20183;-73
2023/03/30 07:47:14;;;;;;;10.07;2.40;;;;;;;;;;4922734;29;20055;-72
2023/03/30 07:49:39;;;;;;;11.32;2.50;;;;;;;;;;4922852;29;20043;-71
2023/03/30 07:52:06;;;;;;;10.48;2.58;;;;;;;;;;4922411;28;20047;-72
2023/03/30 07:54:43;;;;;;;7.40;1.90;;;;;;;;;;4922394;29;20051;-72
2023/03/30 07:57:16;;;;;;;7.78;2.22;;;;;;;;;;4927649;28;20226;-72
2023/03/30 07:59:41;;;;;;;11.52;2.85;;;;;;;;;;4930806;29;20046;-72
2023/03/30 08:02:19;;;;;;;9.77;2.03;;;;;;;;;;4921380;28;20082;-72
2023/03/30 08:04:51;;;;;;;6.95;1.90;;;;;;;;;;4923711;29;20052;-72
2023/03/30 08:07:26;;;;;;;4.45;1.70;;;;;;;;;;4923264;29;20117;-71
2023/03/30 08:09:55;;;;;;;5.88;1.50;;;;;;;;;;4923323;28;20051;-72
2023/03/30 08:12:21;;;;;;;8.10;2.28;;;;;;;;;;4922595;28;20089;-72
2023/03/30 08:14:46;;;;;;;7.53;2.30;;;;;;;;;;4921668;29;20172;-72
2023/03/30 08:17:12;;;;;;;5.25;1.95;;;;;;;;;;4940861;29;20057;-72
2023/03/30 08:19:37;;;;;;;6.40;2.08;;;;;;;;;;4941691;28;20051;-72
2023/03/30 08:22:03;;;;;;;7.38;1.90;;;;;;;;;;4941225;29;20055;-71
2023/03/30 08:24:29;;;;;;;8.23;2.40;;;;;;;;;;4939648;28;20043;-72
2023/03/30 08:26:54;;;;;;;4.55;1.90;;;;;;;;;;4942051;29;20055;-71
2023/03/30 08:29:20;;;;;;;7.82;2.38;;;;;;;;;;4941266;29;20450;-72
2023/03/30 08:31:46;;;;;;;10.52;2.35;;;;;;;;;;4941586;28;20051;-72
2023/03/30 08:34:12;;;;;;;8.02;2.40;;;;;;;;;;4940247;29;20051;-71
2023/03/30 08:36:37;;;;;;;11.50;2.53;;;;;;;;;;4937813;29;20122;-71
2023/03/30 08:39:03;;;;;;;7.07;1.88;;;;;;;;;;4943049;28;20041;-72
2023/03/30 08:41:29;;;;;;;8.95;2.25;;;;;;;;;;4945658;28;20066;-72
2023/03/30 08:44:23;;;;;;;8.73;1.80;;;;;;;;;;4944988;29;20043;-71
2023/03/30 08:46:49;;;;;;;13.93;2.25;;;;;;;;;;4944593;28;20138;-72
2023/03/30 08:49:18;;;;;;;8.27;1.98;;;;;;;;;;4945498;29;20229;-72
2023/03/30 08:51:46;;;;;;;6.32;1.67;;;;;;;;;;4945124;29;20062;-72
2023/03/30 08:54:15;;;;;;;8.80;2.65;;;;;;;;;;4928383;29;20134;-72
2023/03/30 08:56:47;;;;;;;4.50;1.45;;;;;;;;;;4926751;29;20066;-72
2023/03/30 08:59:34;;;;;;;3.28;1.60;;;;;;;;;;4945254;28;20076;-72
2023/03/30 09:02:30;;;;;;;10.55;1.67;;;;;;;;;;4928458;29;20166;-71
2023/03/30 09:05:03;;;;;;;10.38;1.95;;;;;;;;;;4926585;29;20433;-72
2023/03/30 09:07:40;;;;;;;6.38;1.98;;;;;;;;;;4943050;29;20183;-71
2023/03/30 09:10:11;;;;;;;3.78;1.60;;;;;;;;;;4944697;29;20047;-71
2023/03/30 09:12:50;;;;;;;9.82;2.20;;;;;;;;;;4944503;28;20078;-71
2023/03/30 09:15:19;;;;;;;5.25;1.83;;;;;;;;;;4944213;29;20051;-71
2023/03/30 09:17:49;;;;;;;8.50;1.88;;;;;;;;;;4943848;29;20109;-71
2023/03/30 09:20:23;;;;;;;14.07;2.22;;;;;;;;;;4942991;28;20075;-71
2023/03/30 09:22:49;;;;;;;4.10;2.00;;;;;;;;;;4944154;29;20077;-71
2023/03/30 09:25:26;;;;;;;7.55;2.72;;;;;;;;;;4944257;28;20051;-71
2023/03/30 09:28:23;;;;;;;5.20;1.58;;;;;;;;;;4943710;29;20054;-71
2023/03/30 09:30:58;;;;;;;8.68;1.85;;;;;;;;;;4942334;28;20070;-71
2023/03/30 09:33:31;;;;;;;9.40;2.05;;;;;;;;;;4943607;29;20065;-71
2023/03/30 09:36:05;;;;;;;7.35;1.75;;;;;;;;;;4943142;29;20062;-71
2023/03/30 09:38:31;;;;;;;3.53;1.92;;;;;;;;;;4941411;28;20047;-71
2023/03/30 09:41:16;;;;;;;8.95;2.38;;;;;;;;;;4940798;29;20710;-71
2023/03/30 09:43:45;;;;;;;6.25;2.35;;;;;;;;;;4942020;29;20087;-71
2023/03/30 09:46:13;;;;;;;7.20;2.00;;;;;;;;;;4941101;28;20086;-71
2023/03/30 09:48:44;;;;;;;8.35;2.15;;;;;;;;;;4940659;29;20061;-71
2023/03/30 09:51:18;;;;;;;5.90;2.30;;;;;;;;;;4943092;28;20167;-71
2023/03/30 09:53:45;;;;;;;6.55;2.17;;;;;;;;;;4944257;29;20133;-71
2023/03/30 09:56:33;;;;;;;5.93;2.40;;;;;;;;;;4944432;29;20083;-71
2023/03/30 09:59:36;;;;;;;9.68;2.70;;;;;;;;;;4926871;29;20677;-71
2023/03/30 10:02:11;;;;;;;5.43;1.90;;;;;;;;;;4944482;29;20532;-71
2023/03/30 10:04:52;;;;;;;4.97;2.53;;;;;;;;;;4942796;28;20106;-71
2023/03/30 10:07:38;;;;;;;6.00;2.17;;;;;;;;;;4944232;29;20141;-71
2023/03/30 10:10:25;;;;;;;5.82;2.45;;;;;;;;;;4943796;28;20426;-71
2023/03/30 10:13:02;;;;;;;7.45;2.10;;;;;;;;;;4929016;29;20153;-71
2023/03/30 10:15:31;;;;;;;9.50;2.28;;;;;;;;;;4942632;28;20057;-71
2023/03/30 10:18:01;;;;;;;6.60;1.75;;;;;;;;;;4943825;29;20807;-71
2023/03/30 10:20:38;;;;;;;11.38;2.47;;;;;;;;;;4942960;28;20047;-72
2023/03/30 10:23:16;;;;;;;9.32;2.28;;;;;;;;;;4943705;29;20457;-72
2023/03/30 10:25:42;;;;;;;6.78;1.83;;;;;;;;;;4925372;29;20058;-71
2023/03/30 10:28:16;;;;;;;8.52;2.35;;;;;;;;;;4943367;28;20058;-71
2023/03/30 10:30:49;;;;;;;6.45;2.35;;;;;;;;;;4944674;29;20055;-71
2023/03/30 10:33:15;;;;;;;8.05;2.03;;;;;;;;;;4942524;29;20079;-72
2023/03/30 10:35:41;;;;;;;10.30;1.92;;;;;;;;;;4942013;29;20071;-72
2023/03/30 10:38:09;;;;;;;6.80;1.98;;;;;;;;;;4943691;28;20055;-71
2023/03/30 10:40:37;;;;;;;12.82;2.33;;;;;;;;;;4942560;29;20062;-72
2023/03/30 10:43:07;;;;;;;11.43;2.90;;;;;;;;;;4942818;28;20063;-71
2023/03/30 10:45:42;;;;;;;5.45;1.67;;;;;;;;;;4943043;29;20089;-72
2023/03/30 10:48:36;;;;;;;17.52;2.33;;;;;;;;;;4942427;28;20052;-71
2023/03/30 10:51:58;;;;;;;10.80;2.63;;;;;;;;;;4920135;29;20051;-71
2023/03/30 10:54:30;;;;;;;;;;;;;;;;;;4914593;29;20530;-70
2023/03/30 10:57:02;;;;;;;11.82;1.95;;;;;;;;;;4921233;29;19987;-71
2023/03/30 10:59:37;;;;;;;14.60;2.53;;;;;;;;;;4930246;29;20043;-71
2023/03/30 11:02:08;;;;;;;9.45;2.63;;;;;;;;;;4941774;28;20110;-70
2023/03/30 11:04:46;;;;;;;14.03;2.57;;;;;;;;;;4941210;28;20051;-71
2023/03/30 11:07:25;;;;;;;10.98;2.58;;;;;;;;;;4936929;29;20294;-70
2023/03/30 11:09:59;;;;;;;15.75;2.88;;;;;;;;;;4939260;29;20047;-70
2023/03/30 11:12:33;;;;;;;19.05;2.80;;;;;;;;;;4922010;28;20057;-70
2023/03/30 11:15:03;;;;;;;10.18;2.42;;;;;;;;;;4939644;29;20051;-70
2023/03/30 11:17:33;;;;;;;14.10;3.20;;;;;;;;;;4940053;29;20106;-70
2023/03/30 11:20:42;;;;;;;16.20;2.65;;;;;;;;;;4939391;28;20047;-70
2023/03/30 11:23:21;;;;;;;16.23;2.20;;;;;;;;;;4904857;29;20109;-70
2023/03/30 11:26:00;;;;;;;12.18;2.75;;;;;;;;;;4940941;28;20502;-70
2023/03/30 11:28:52;;;;;;;8.93;2.13;;;;;;;;;;4940092;29;20146;-70
2023/03/30 11:31:38;;;;;;;12.10;2.50;;;;;;;;;;4938808;28;20050;-70
2023/03/30 11:34:16;;;;;;;12.95;2.85;;;;;;;;;;4939868;29;20049;-69
2023/03/30 11:36:54;;;;;;;12.35;2.28;;;;;;;;;;4940314;28;20059;-70
2023/03/30 11:39:26;;;;;;;16.42;3.33;;;;;;;;;;4934841;28;20498;-70
2023/03/30 11:42:02;;;;;;;9.63;2.25;;;;;;;;;;4939643;29;20075;-71
2023/03/30 11:44:28;;;;;;;13.75;2.97;;;;;;;;;;4939075;28;20083;-70
2023/03/30 11:47:26;;;;;;;14.07;3.22;;;;;;;;;;4939975;29;20146;-70
2023/03/30 11:50:18;;;;;;;17.58;3.28;;;;;;;;;;4939196;28;20141;-70
2023/03/30 11:52:56;;;;;;;10.73;2.38;;;;;;;;;;4937721;29;20139;-70
2023/03/30 11:55:32;;;;;;;12.48;2.10;;;;;;;;;;4938186;28;20553;-71
2023/03/30 11:58:10;;;;;;;11.00;3.33;;;;;;;;;;4939955;29;20098;-70
2023/03/30 12:00:59;;;;;;;15.32;2.08;;;;;;;;;;4940140;28;20043;-71
2023/03/30 12:03:42;;;;;;;8.05;1.88;;;;;;;;;;4938645;29;20322;-70
2023/03/30 12:06:31;;;;;;;12.52;2.00;;;;;;;;;;4939290;29;20047;-72
2023/03/30 12:09:06;;;;;;;12.30;3.10;;;;;;;;;;4922495;29;20055;-71
2023/03/30 12:11:46;;;;;;;12.05;2.45;;;;;;;;;;4939562;29;20047;-69
2023/03/30 12:14:30;;;;;;;5.65;1.98;;;;;;;;;;4937863;28;20169;-70
2023/03/30 12:17:01;;;;;;;16.02;1.90;;;;;;;;;;4926183;29;20062;-70
2023/03/30 12:19:36;;;;;;;6.07;2.40;;;;;;;;;;4939568;28;20063;-70
2023/03/30 12:22:15;;;;;;;7.13;2.30;;;;;;;;;;4939288;29;20050;-71
2023/03/30 12:24:50;;;;;;;10.73;2.20;;;;;;;;;;4938811;29;20062;-70
2023/03/30 12:27:16;;;;;;;2.85;2.13;;;;;;;;;;4937506;28;20487;-71
2023/03/30 12:29:43;;;;;;;14.88;2.65;;;;;;;;;;4940502;29;20141;-72
2023/03/30 12:32:22;;;;;;;4.50;2.58;;;;;;;;;;4922318;29;20047;-72
2023/03/30 12:34:47;;;;;;;7.30;2.40;;;;;;;;;;4939692;29;20118;-72
2023/03/30 12:37:27;;;;;;;9.48;2.95;;;;;;;;;;4938238;28;20939;-70
2023/03/30 12:40:05;;;;;;;6.97;2.58;;;;;;;;;;4939541;28;20043;-72
2023/03/30 12:42:34;;;;;;;4.50;2.70;;;;;;;;;;4938501;29;20055;-70
2023/03/30 12:45:30;;;;;;;6.10;2.40;;;;;;;;;;4940009;28;20138;-69
2023/03/30 12:48:11;;;;;;;6.70;2.85;;;;;;;;;;4938436;29;20125;-70
2023/03/30 12:50:51;;;;;;;5.13;2.72;;;;;;;;;;4939373;28;20510;-71
2023/03/30 12:53:41;;;;;;;4.00;2.53;;;;;;;;;;4938510;29;20649;-70
2023/03/30 12:56:35;;;;;;;8.77;3.15;;;;;;;;;;4938555;29;20051;-69
2023/03/30 12:59:16;;;;;;;9.50;2.60;;;;;;;;;;4913790;29;20073;-72
2023/03/30 13:02:18;;;;;;;6.25;3.13;;;;;;;;;;4939620;29;20078;-71
2023/03/30 13:04:47;;;;;;;7.70;2.70;;;;;;;;;;4937499;28;20047;-71
2023/03/30 13:07:20;;;;;;;6.32;2.88;;;;;;;;;;4938617;29;20316;-70
2023/03/30 13:09:55;;;;;;;7.57;2.80;;;;;;;;;;4938707;28;20135;-71
2023/03/30 13:12:26;;;;;;;4.00;2.63;;;;;;;;;;4938422;29;20062;-71
2023/03/30 13:15:15;;;;;;;11.23;3.22;;;;;;;;;;4939610;28;20051;-70
2023/03/30 13:18:22;;;;;;;6.95;3.17;;;;;;;;;;4936796;29;20086;-70
2023/03/30 13:20:47;;;;;;;7.78;2.95;;;;;;;;;;4938269;29;20071;-70
2023/03/30 13:23:13;;;;;;;6.25;2.88;;;;;;;;;;4935431;28;20212;-70
2023/03/30 13:25:43;;;;;;;10.32;3.30;;;;;;;;;;4941129;28;20062;-72
2023/03/30 13:28:36;;;;;;;4.72;2.60;;;;;;;;;;4943012;29;20138;-71
2023/03/30 13:31:34;;;;;;;5.80;2.10;;;;;;;;;;4926071;29;20058;-72
2023/03/30 13:34:08;;;;;;;4.75;2.28;;;;;;;;;;4937490;29;21104;-73
2023/03/30 13:36:43;;;;;;;6.90;2.63;;;;;;;;;;4942150;28;20058;-71
2023/03/30 13:39:16;;;;;;;4.78;1.90;;;;;;;;;;4944702;29;20043;-70
2023/03/30 13:41:52;;;;;;;5.30;2.03;;;;;;;;;;4940495;29;20583;-72
2023/03/30 13:44:49;;;;;;;2.78;1.55;;;;;;;;;;4940890;29;20977;-70
2023/03/30 13:47:52;;;;;;;4.53;2.00;;;;;;;;;;4895090;29;20051;-69
2023/03/30 13:50:30;;;;;;;4.03;1.67;;;;;;;;;;4939699;29;20079;-69
2023/03/30 13:52:59;;;;;;;4.28;1.90;;;;;;;;;;4925193;29;20595;-70
2023/03/30 13:55:27;;;;;;;5.25;2.00;;;;;;;;;;4940731;29;20047;-70
2023/03/30 13:57:58;;;;;;;5.05;2.40;;;;;;;;;;4942543;29;20227;-69
2023/03/30 14:00:42;;;;;;;8.25;1.95;;;;;;;;;;4941353;28;20058;-71
2023/03/30 14:03:31;;;;;;;6.90;1.90;;;;;;;;;;4942778;29;20073;-69
2023/03/30 14:06:14;;;;;;;6.10;2.08;;;;;;;;;;4941222;28;20047;-70
2023/03/30 14:08:43;;;;;;;5.13;2.10;;;;;;;;;;4941800;29;20055;-70
2023/03/30 14:11:32;;;;;;;4.97;2.25;;;;;;;;;;4941988;28;20051;-69
2023/03/30 14:13:58;;;;;;;6.57;2.20;;;;;;;;;;4932837;29;20479;-70
2023/03/30 14:16:25;;;;;;;4.50;2.17;;;;;;;;;;4922503;28;20047;-71
2023/03/30 14:18:53;;;;;;;3.58;1.77;;;;;;;;;;4942960;29;20047;-70
2023/03/30 14:21:22;;;;;;;5.85;1.70;;;;;;;;;;4941918;29;20130;-71
2023/03/30 14:23:52;;;;;;;5.05;2.33;;;;;;;;;;4941055;28;20141;-71
2023/03/30 14:26:21;;;;;;;9.15;1.90;;;;;;;;;;4940110;28;20047;-70
2023/03/30 14:28:49;;;;;;;7.90;2.00;;;;;;;;;;4941322;29;20502;-69
2023/03/30 14:31:19;;;;;;;3.45;1.90;;;;;;;;;;4941574;29;20050;-69
2023/03/30 14:33:45;;;;;;;6.57;1.88;;;;;;;;;;4942238;28;20059;-68
2023/03/30 14:36:15;;;;;;;7.50;2.03;;;;;;;;;;4940493;28;20049;-69
2023/03/30 14:38:43;;;;;;;1.98;1.48;;;;;;;;;;4940803;28;20055;-72
2023/03/30 14:41:26;;;;;;;9.75;2.13;;;;;;;;;;4941607;29;20043;-68
2023/03/30 14:44:06;;;;;;;4.10;1.63;;;;;;;;;;4942241;29;20485;-69
2023/03/30 14:46:45;;;;;;;5.05;1.80;;;;;;;;;;4938967;28;20139;-70
2023/03/30 14:49:27;;;;;;;4.95;2.05;;;;;;;;;;4940485;28;20054;-67
2023/03/30 14:52:06;;;;;;;10.95;2.00;;;;;;;;;;4941808;28;20497;-70
2023/03/30 14:54:33;;;;;;;4.15;1.85;;;;;;;;;;4940952;29;20142;-67
2023/03/30 14:57:00;;;;;;;3.60;1.90;;;;;;;;;;4941116;28;20055;-71
2023/03/30 14:59:27;;;;;;;7.38;2.35;;;;;;;;;;4940724;29;20055;-71
2023/03/30 15:01:54;;;;;;;7.93;2.10;;;;;;;;;;4941123;29;20515;-69
2023/03/30 15:04:23;;;;;;;5.38;2.00;;;;;;;;;;4940995;28;20141;-72
2023/03/30 15:06:50;;;;;;;5.97;2.47;;;;;;;;;;4940971;29;20057;-69
2023/03/30 15:09:17;;;;;;;6.15;2.55;;;;;;;;;;4940559;28;20173;-69
2023/03/30 15:11:49;;;;;;;2.92;2.17;;;;;;;;;;4938529;28;20510;-70
2023/03/30 15:14:18;;;;;;;7.10;2.30;;;;;;;;;;4940720;29;20150;-69
2023/03/30 15:16:46;;;;;;;4.10;2.00;;;;;;;;;;4939188;28;20087;-68
2023/03/30 15:19:30;;;;;;;6.13;2.50;;;;;;;;;;4937327;29;20051;-69
2023/03/30 15:22:00;;;;;;;9.27;2.60;;;;;;;;;;4940163;29;20098;-69
2023/03/30 15:24:30;;;;;;;5.18;2.25;;;;;;;;;;4939796;28;20913;-68
2023/03/30 15:26:58;;;;;;;7.30;2.75;;;;;;;;;;4923336;29;20055;-69